• Join FlightAware (Why Join?)
  • Login
  • US Flag 
07:31AM EST


 

Airport Tracker/Info


-or-


 

Live Flight TrackerFlight Track Log ✈ LKF61 ✈ 25-Mar-2014 ✈ KTEB - KPWK

Flight Track Log - Related Links

Times and Time Zones

All times are in EDT time to prevent confusion due to time zone crossing. See the LKF61 flight status page for this flight to view local times or setup timezone preferences in your user account.

Time Position Orientation Groundspeed Altitude Reporting Facility
EDT Latitude Longitude Course Direction KTS MPH feet Rate Location/Type
04:11PM 40.8000 -74.2167 255° West 248 285 3,300  Level New York TRACON
04:12PM 40.8000 -74.3167 270° West 272 313 7,400 3,540 Climbing New York TRACON
04:13PM 40.8667 -74.3833 323° Northwest 304 350 10,800 3,300 Climbing New York TRACON
04:14PM 40.9333 -74.4667 317° Northwest 372 428 14,100 2,640 Climbing New York TRACON
04:15PM 41.1384 -74.7267 304° West  Level FlightAware Approximate
04:15PM 41.0114 -74.5547 320° Northwest 396 456 15,900  Level New York Center
04:16PM 41.0939 -74.6475 320° Northwest 399 459 16,100 60 Climbing New York Center
04:17PM 41.1633 -74.7506 312° West 384 442 16,100  Level New York Center
04:18PM 41.2133 -74.8722 299° West 377 434 16,100 960 Level New York Center
04:19PM 41.2764 -74.9728 310° West 388 447 18,100 3,120 Climbing New York Center
04:20PM 41.3997 -75.0219 343° North 381 438 22,400 3,420 Climbing New York Center
04:21PM 41.5169 -75.0569 347° North 406 467 25,000 2,280 Climbing New York Center
04:22PM 41.5958 -75.1758 312° West 408 470 27,000 2,160 Climbing New York Center
04:23PM 41.6472 -75.3097 297° West 401 461 29,400 2,400 Climbing New York Center
04:24PM 41.6897 -75.4458 293° West 406 467 31,800 2,100 Climbing New York Center
04:25PM 41.7258 -75.5817 290° West 399 459 33,700 1,680 Climbing New York Center
04:26PM 41.7619 -75.7178 290° West 394 453 35,200 1,200 Climbing New York Center
04:27PM 41.7958 -75.8567 288° West 394 453 36,200 1,020 Climbing New York Center
04:28PM 41.8250 -75.9953 286° West 388 447 37,300 960 Climbing New York Center
04:29PM 41.8522 -76.1367 285° West 388 447 38,200 900 Climbing New York Center
04:30PM 41.8811 -76.2756 286° West 388 447 39,200 900 Climbing New York Center
04:31PM 41.9103 -76.4117 286° West 383 441 40,000 300 Climbing New York Center
04:32PM 41.9578 -76.6381 286° West 392 451 40,000  Level Cleveland Center
04:33PM 41.9875 -76.7842 285° West 401 461 40,000  Level Cleveland Center
04:34PM 42.0181 -76.9308 286° West 404 465 40,000  Level Cleveland Center
04:35PM 42.0475 -77.0767 285° West 404 465 40,000  Level Cleveland Center
04:36PM 42.0764 -77.2239 285° West 404 465 40,000  Level Cleveland Center
04:37PM 42.1061 -77.3719 285° West 407 468 40,000  Level Cleveland Center
04:38PM 42.1358 -77.5208 285° West 407 468 40,000  Level Cleveland Center
04:39PM 42.1703 -77.6997 285° West 408 470 40,000  Level Cleveland Center
04:40PM 42.2000 -77.8486 285° West 408 470 40,000  Level Cleveland Center
04:42PM 42.2283 -77.9969 285° West 408 470 40,000  Level Cleveland Center
04:43PM 42.2569 -78.1442 285° West 407 468 40,000  Level Cleveland Center
04:44PM 42.2844 -78.2936 284° West 409 471 40,000  Level Cleveland Center
04:45PM 42.3122 -78.4408 284° West 404 465 40,000  Level Cleveland Center
04:46PM 42.3389 -78.5872 284° West 404 465 40,000  Level Cleveland Center
04:47PM 42.3717 -78.7631 284° West 404 465 40,000  Level Cleveland Center
04:48PM 42.3983 -78.9061 284° West 404 465 40,000  Level Cleveland Center
04:49PM 42.4336 -79.0528 288° West 407 468 40,000  Level Cleveland Center
04:50PM 42.4711 -79.1994 289° West 406 467 40,000  Level Cleveland Center
04:51PM 42.5064 -79.3447 288° West 406 467 40,000  Level Cleveland Center
04:52PM 42.5417 -79.4889 288° West 405 466 40,000  Level Cleveland Center
04:53PM 42.5831 -79.6653 288° West 410 472 40,000  Level Cleveland Center
04:54PM 42.6156 -79.8131 287° West 408 470 40,000  Level Cleveland Center
04:55PM 42.6203 -79.9647 272° West 409 471 40,000  Level Cleveland Center
04:56PM 42.6272 -80.1217 273° West 406 467 40,000  Level Cleveland Center
04:57PM 42.6336 -80.2750 273° West 406 467 40,000  Level Cleveland Center
04:58PM 42.6389 -80.4289 273° West 407 468 40,000  Level Cleveland Center
04:59PM 42.6442 -80.5814 273° West 407 468 40,000  Level Cleveland Center
05:01PM 42.6564 -80.9239 274° West 414 476 40,000  Level Cleveland Center
05:02PM 42.6608 -81.0764 272° West 414 476 40,000  Level Cleveland Center
05:03PM 42.6653 -81.2292 272° West 410 472 40,000  Level Cleveland Center
05:04PM 42.6803 -81.3842 278° West 411 473 40,000  Level Cleveland Center
05:05PM 42.6856 -81.5383 273° West 411 473 40,000  Level Cleveland Center
05:06PM 42.6789 -81.7250 267° West 412 474 40,000  Level Cleveland Center
05:07PM 42.6750 -81.8828 268° West 415 478 40,000  Level Cleveland Center
05:08PM 42.6697 -82.0389 267° West 416 479 40,000 -240 Level Cleveland Center
05:09PM 42.6642 -82.1969 267° West 417 480 39,600 -720 Descending Cleveland Center
05:10PM 42.6583 -82.3600 267° West 432 497 38,600 -1,020 Descending Cleveland Center
05:11PM 42.6522 -82.5256 267° West 437 503 37,600 -1,080 Descending Cleveland Center
05:12PM 42.6450 -82.7239 267° West 440 506 36,400 -1,080 Descending Cleveland Center
05:14PM 42.6386 -82.8875 267° West 440 506 35,400 -1,020 Descending Cleveland Center
05:15PM 42.6319 -83.0503 267° West 435 501 34,400 -720 Descending Cleveland Center
05:16PM 42.6244 -83.2169 267° West 443 510 34,000 -240 Descending Cleveland Center
05:17PM 42.6178 -83.3800 267° West 442 509 34,000 -240 Level Cleveland Center
05:18PM 42.6092 -83.5747 267° West 439 505 33,600 -480 Descending Cleveland Center
05:19PM 42.6019 -83.7397 267° West 440 506 33,000 -300 Descending Cleveland Center
05:20PM 42.5933 -83.9031 266° West 441 507 33,000 -420 Level Cleveland Center
05:21PM 42.5858 -84.0681 267° West 441 507 32,200 -1,020 Descending Cleveland Center
05:22PM 42.5758 -84.2683 266° West 444 511 31,000 -1,080 Descending Cleveland Center
05:23PM 42.5672 -84.4356 266° West 444 511 30,000 -540 Descending Cleveland Center
05:24PM 42.5572 -84.6025 265° West 446 513 30,000  Level Cleveland Center
05:25PM 42.5481 -84.7633 266° West 441 507 30,000  Level Cleveland Center
05:26PM 42.5392 -84.9306 266° West 442 509 30,000  Level Cleveland Center
05:27PM 42.5275 -85.1294 266° West 442 509 30,000  Level Cleveland Center
05:28PM 42.5189 -85.2950 266° West 442 509 30,000 -660 Level Cleveland Center
05:29PM 42.5075 -85.4617 265° West 442 509 28,700 -1,380 Descending Cleveland Center
05:30PM 42.4972 -85.6286 265° West 442 509 27,200 -1,500 Descending Cleveland Center
05:31PM 42.4864 -85.7894 265° West 433 498 25,700 -1,500 Descending Cleveland Center
05:32PM 42.4775 -85.9467 266° West 420 483 24,200 -1,500 Descending Cleveland Center
05:33PM 42.4667 -86.1006 265° West 412 474 22,700 -1,620 Descending Cleveland Center
05:34PM 42.4567 -86.2817 266° West 405 466 20,900 -2,040 Descending Cleveland Center
05:36PM 42.4475 -86.4825 267° West 386 444 17,800 -2,400 Descending Chicago Center
05:37PM 42.4389 -86.6161 265° West 364 419 15,000 -2,820 Descending Chicago Center
05:38PM 42.4333 -86.7453 267° West 349 402 12,000 -2,400 Descending Chicago Center
05:39PM 42.4272 -86.8544 266° West 298 343 10,100 -1,740 Descending Chicago Center
05:40PM 42.4203 -86.9483 264° West 258 297 8,400 -1,560 Descending Chicago Center
05:41PM 42.4158 -87.0444 266° West 258 297 6,900 -1,620 Descending Chicago Center
05:42PM 42.4089 -87.1558 265° West 254 292 5,100 -1,620 Descending Chicago Center
05:43PM 42.4031 -87.2469 265° West 249 287 3,600 -1,020 Descending Chicago Center
05:44PM 42.3972 -87.3483 266° West 245 282 3,000 -240 Descending Chicago Center
05:46PM 42.3500 -87.5000 247° West 240 276 3,000  Level Chicago TRACON
05:47PM 42.3333 -87.5833 255° West 243 280 3,000  Level Chicago TRACON
05:48PM 42.3164 -87.6819 257° West 240 276 3,000  Level Chicago Center
05:49PM 42.3100 -87.7761 265° West 237 273 3,000 -300 Level Chicago Center
05:50PM 42.3033 -87.8642 264° West 237 273 2,500 -300 Descending Chicago Center
05:51PM 42.2975 -87.9425 264° West 220 253 2,500  Level Chicago Center
05:52PM 42.2611 -88.0017 230° Southwest 230 265 2,500 -120 Level Chicago Center
05:53PM 42.2075 -87.9544 147° Southeast 229 264 2,300 -240 Descending Chicago Center
05:55PM 42.1143 -87.9015 169° South  Level Estimated
06:02PM 42.1143 -87.9015 169° South  Level Estimated
06:03PM 42.1143 -87.9015 169° South  Level Estimated